sensor_id;sensor_type;location;lat;lon;timestamp;P1;durP1;ratioP1;P2;durP2;ratioP2
23802;SDS011;12082;51.786;6.018;2023-12-20T00:00:16;22.07;;;7.83;;
23802;SDS011;12082;51.786;6.018;2023-12-20T00:02:42;30.20;;;7.70;;
23802;SDS011;12082;51.786;6.018;2023-12-20T00:05:12;28.97;;;8.23;;
23802;SDS011;12082;51.786;6.018;2023-12-20T00:07:40;32.07;;;7.53;;
23802;SDS011;12082;51.786;6.018;2023-12-20T00:10:06;24.43;;;7.93;;
23802;SDS011;12082;51.786;6.018;2023-12-20T00:12:32;35.60;;;8.60;;
23802;SDS011;12082;51.786;6.018;2023-12-20T00:14:57;35.93;;;8.97;;
23802;SDS011;12082;51.786;6.018;2023-12-20T00:17:23;27.50;;;7.80;;
23802;SDS011;12082;51.786;6.018;2023-12-20T00:19:49;34.97;;;9.23;;
23802;SDS011;12082;51.786;6.018;2023-12-20T00:22:14;27.13;;;7.87;;
23802;SDS011;12082;51.786;6.018;2023-12-20T00:24:40;31.97;;;8.10;;
23802;SDS011;12082;51.786;6.018;2023-12-20T00:27:05;27.27;;;8.77;;
23802;SDS011;12082;51.786;6.018;2023-12-20T00:29:31;34.73;;;9.00;;
23802;SDS011;12082;51.786;6.018;2023-12-20T00:31:56;39.03;;;8.63;;
23802;SDS011;12082;51.786;6.018;2023-12-20T00:34:22;34.33;;;8.70;;
23802;SDS011;12082;51.786;6.018;2023-12-20T00:36:48;30.50;;;9.47;;
23802;SDS011;12082;51.786;6.018;2023-12-20T00:39:13;34.10;;;8.37;;
23802;SDS011;12082;51.786;6.018;2023-12-20T00:41:39;24.83;;;7.83;;
23802;SDS011;12082;51.786;6.018;2023-12-20T00:44:04;33.30;;;9.10;;
23802;SDS011;12082;51.786;6.018;2023-12-20T00:46:30;24.53;;;8.87;;
23802;SDS011;12082;51.786;6.018;2023-12-20T00:48:55;39.17;;;8.10;;
23802;SDS011;12082;51.786;6.018;2023-12-20T00:51:21;31.93;;;8.83;;
23802;SDS011;12082;51.786;6.018;2023-12-20T00:53:48;31.77;;;8.70;;
23802;SDS011;12082;51.786;6.018;2023-12-20T00:56:15;23.87;;;8.27;;
23802;SDS011;12082;51.786;6.018;2023-12-20T00:58:40;30.57;;;8.00;;
23802;SDS011;12082;51.786;6.018;2023-12-20T01:01:06;27.20;;;8.00;;
23802;SDS011;12082;51.786;6.018;2023-12-20T01:03:31;29.50;;;7.73;;
23802;SDS011;12082;51.786;6.018;2023-12-20T01:05:57;28.57;;;7.43;;
23802;SDS011;12082;51.786;6.018;2023-12-20T01:08:22;28.33;;;8.23;;
23802;SDS011;12082;51.786;6.018;2023-12-20T01:10:48;29.70;;;7.77;;
23802;SDS011;12082;51.786;6.018;2023-12-20T01:13:14;33.67;;;8.30;;
23802;SDS011;12082;51.786;6.018;2023-12-20T01:15:39;24.73;;;7.80;;
23802;SDS011;12082;51.786;6.018;2023-12-20T01:18:05;28.60;;;7.83;;
23802;SDS011;12082;51.786;6.018;2023-12-20T01:20:30;36.17;;;8.07;;
23802;SDS011;12082;51.786;6.018;2023-12-20T01:22:56;34.53;;;8.47;;
23802;SDS011;12082;51.786;6.018;2023-12-20T01:25:22;29.67;;;7.77;;
23802;SDS011;12082;51.786;6.018;2023-12-20T01:27:47;26.33;;;7.17;;
23802;SDS011;12082;51.786;6.018;2023-12-20T01:30:13;30.53;;;8.00;;
23802;SDS011;12082;51.786;6.018;2023-12-20T01:32:39;27.37;;;7.90;;
23802;SDS011;12082;51.786;6.018;2023-12-20T01:35:05;34.00;;;8.03;;
23802;SDS011;12082;51.786;6.018;2023-12-20T01:37:31;21.07;;;7.53;;
23802;SDS011;12082;51.786;6.018;2023-12-20T01:39:57;38.67;;;8.43;;
23802;SDS011;12082;51.786;6.018;2023-12-20T01:42:23;41.33;;;9.27;;
23802;SDS011;12082;51.786;6.018;2023-12-20T01:44:49;28.60;;;7.77;;
23802;SDS011;12082;51.786;6.018;2023-12-20T01:47:14;37.87;;;10.70;;
23802;SDS011;12082;51.786;6.018;2023-12-20T01:49:41;39.63;;;9.47;;
23802;SDS011;12082;51.786;6.018;2023-12-20T01:52:06;31.37;;;8.40;;
23802;SDS011;12082;51.786;6.018;2023-12-20T01:54:34;33.07;;;8.83;;
23802;SDS011;12082;51.786;6.018;2023-12-20T01:57:00;33.23;;;9.23;;
23802;SDS011;12082;51.786;6.018;2023-12-20T01:59:26;36.47;;;9.00;;
23802;SDS011;12082;51.786;6.018;2023-12-20T02:01:53;35.17;;;8.90;;
23802;SDS011;12082;51.786;6.018;2023-12-20T02:04:19;38.27;;;8.97;;
23802;SDS011;12082;51.786;6.018;2023-12-20T02:06:44;28.10;;;8.23;;
23802;SDS011;12082;51.786;6.018;2023-12-20T02:09:11;40.67;;;10.43;;
23802;SDS011;12082;51.786;6.018;2023-12-20T02:11:37;35.57;;;8.50;;
23802;SDS011;12082;51.786;6.018;2023-12-20T02:14:03;22.23;;;7.77;;
23802;SDS011;12082;51.786;6.018;2023-12-20T02:16:29;36.67;;;8.87;;
23802;SDS011;12082;51.786;6.018;2023-12-20T02:18:54;32.37;;;9.67;;
23802;SDS011;12082;51.786;6.018;2023-12-20T02:21:24;42.40;;;9.83;;
23802;SDS011;12082;51.786;6.018;2023-12-20T02:23:50;32.33;;;9.80;;
23802;SDS011;12082;51.786;6.018;2023-12-20T02:26:16;40.33;;;12.20;;
23802;SDS011;12082;51.786;6.018;2023-12-20T02:28:41;43.67;;;9.73;;
23802;SDS011;12082;51.786;6.018;2023-12-20T02:31:07;34.83;;;10.63;;
23802;SDS011;12082;51.786;6.018;2023-12-20T02:33:33;33.40;;;10.20;;
23802;SDS011;12082;51.786;6.018;2023-12-20T02:35:58;36.50;;;11.30;;
23802;SDS011;12082;51.786;6.018;2023-12-20T02:38:24;31.80;;;10.80;;
23802;SDS011;12082;51.786;6.018;2023-12-20T02:40:49;46.17;;;9.70;;
23802;SDS011;12082;51.786;6.018;2023-12-20T02:43:15;41.90;;;10.87;;
23802;SDS011;12082;51.786;6.018;2023-12-20T02:45:40;31.53;;;8.40;;
23802;SDS011;12082;51.786;6.018;2023-12-20T02:48:06;34.30;;;9.23;;
23802;SDS011;12082;51.786;6.018;2023-12-20T02:50:32;30.83;;;8.37;;
23802;SDS011;12082;51.786;6.018;2023-12-20T02:52:57;36.23;;;9.13;;
23802;SDS011;12082;51.786;6.018;2023-12-20T02:55:23;38.60;;;8.37;;
23802;SDS011;12082;51.786;6.018;2023-12-20T02:57:48;26.47;;;6.23;;
23802;SDS011;12082;51.786;6.018;2023-12-20T03:00:14;32.70;;;7.93;;
23802;SDS011;12082;51.786;6.018;2023-12-20T03:02:39;37.67;;;8.03;;
23802;SDS011;12082;51.786;6.018;2023-12-20T03:05:05;25.13;;;6.73;;
23802;SDS011;12082;51.786;6.018;2023-12-20T03:07:31;34.33;;;7.60;;
23802;SDS011;12082;51.786;6.018;2023-12-20T03:09:57;21.30;;;6.23;;
23802;SDS011;12082;51.786;6.018;2023-12-20T03:12:22;34.40;;;6.50;;
23802;SDS011;12082;51.786;6.018;2023-12-20T03:14:48;24.17;;;6.93;;
23802;SDS011;12082;51.786;6.018;2023-12-20T03:17:14;27.47;;;6.27;;
23802;SDS011;12082;51.786;6.018;2023-12-20T03:19:40;18.07;;;7.33;;
23802;SDS011;12082;51.786;6.018;2023-12-20T03:22:05;27.60;;;6.10;;
23802;SDS011;12082;51.786;6.018;2023-12-20T03:24:31;20.13;;;6.87;;
23802;SDS011;12082;51.786;6.018;2023-12-20T03:26:56;32.00;;;6.17;;
23802;SDS011;12082;51.786;6.018;2023-12-20T03:29:22;23.70;;;6.97;;
23802;SDS011;12082;51.786;6.018;2023-12-20T03:31:47;29.70;;;6.40;;
23802;SDS011;12082;51.786;6.018;2023-12-20T03:34:13;26.53;;;5.57;;
23802;SDS011;12082;51.786;6.018;2023-12-20T03:36:38;29.07;;;6.53;;
23802;SDS011;12082;51.786;6.018;2023-12-20T03:39:05;35.77;;;6.93;;
23802;SDS011;12082;51.786;6.018;2023-12-20T03:41:30;21.37;;;6.60;;
23802;SDS011;12082;51.786;6.018;2023-12-20T03:43:56;31.63;;;6.73;;
23802;SDS011;12082;51.786;6.018;2023-12-20T03:46:21;30.37;;;6.27;;
23802;SDS011;12082;51.786;6.018;2023-12-20T03:48:47;21.10;;;6.37;;
23802;SDS011;12082;51.786;6.018;2023-12-20T03:51:12;24.93;;;6.73;;
23802;SDS011;12082;51.786;6.018;2023-12-20T03:53:38;27.10;;;6.87;;
23802;SDS011;12082;51.786;6.018;2023-12-20T03:56:05;19.00;;;6.00;;
23802;SDS011;12082;51.786;6.018;2023-12-20T03:58:31;26.60;;;6.17;;
23802;SDS011;12082;51.786;6.018;2023-12-20T04:00:57;34.80;;;6.17;;
23802;SDS011;12082;51.786;6.018;2023-12-20T04:03:22;30.53;;;6.40;;
23802;SDS011;12082;51.786;6.018;2023-12-20T04:05:48;34.27;;;7.20;;
23802;SDS011;12082;51.786;6.018;2023-12-20T04:08:13;23.07;;;6.97;;
23802;SDS011;12082;51.786;6.018;2023-12-20T04:10:39;33.90;;;6.27;;
23802;SDS011;12082;51.786;6.018;2023-12-20T04:13:04;30.90;;;7.10;;
23802;SDS011;12082;51.786;6.018;2023-12-20T04:15:30;31.03;;;7.00;;
23802;SDS011;12082;51.786;6.018;2023-12-20T04:17:55;20.03;;;6.53;;
23802;SDS011;12082;51.786;6.018;2023-12-20T04:20:21;35.77;;;5.83;;
23802;SDS011;12082;51.786;6.018;2023-12-20T04:22:46;31.33;;;7.63;;
23802;SDS011;12082;51.786;6.018;2023-12-20T04:25:12;18.70;;;6.30;;
23802;SDS011;12082;51.786;6.018;2023-12-20T04:27:37;27.50;;;6.10;;
23802;SDS011;12082;51.786;6.018;2023-12-20T04:30:03;24.67;;;6.53;;
23802;SDS011;12082;51.786;6.018;2023-12-20T04:32:29;32.00;;;6.80;;
23802;SDS011;12082;51.786;6.018;2023-12-20T04:34:54;31.73;;;6.63;;
23802;SDS011;12082;51.786;6.018;2023-12-20T04:37:20;36.87;;;7.03;;
23802;SDS011;12082;51.786;6.018;2023-12-20T04:39:46;41.47;;;6.53;;
23802;SDS011;12082;51.786;6.018;2023-12-20T04:42:11;21.20;;;6.10;;
23802;SDS011;12082;51.786;6.018;2023-12-20T04:44:37;28.43;;;5.70;;
23802;SDS011;12082;51.786;6.018;2023-12-20T04:47:02;18.87;;;6.27;;
23802;SDS011;12082;51.786;6.018;2023-12-20T04:49:28;27.03;;;6.73;;
23802;SDS011;12082;51.786;6.018;2023-12-20T04:51:53;36.83;;;8.40;;
23802;SDS011;12082;51.786;6.018;2023-12-20T04:54:19;34.50;;;6.60;;
23802;SDS011;12082;51.786;6.018;2023-12-20T04:56:45;21.53;;;6.83;;
23802;SDS011;12082;51.786;6.018;2023-12-20T04:59:10;29.63;;;6.50;;
23802;SDS011;12082;51.786;6.018;2023-12-20T05:01:36;32.27;;;7.30;;
23802;SDS011;12082;51.786;6.018;2023-12-20T05:04:01;32.13;;;7.37;;
23802;SDS011;12082;51.786;6.018;2023-12-20T05:06:27;33.10;;;6.83;;
23802;SDS011;12082;51.786;6.018;2023-12-20T05:08:52;31.70;;;6.10;;
23802;SDS011;12082;51.786;6.018;2023-12-20T05:11:18;25.67;;;6.13;;
23802;SDS011;12082;51.786;6.018;2023-12-20T05:13:43;31.10;;;6.80;;
23802;SDS011;12082;51.786;6.018;2023-12-20T05:16:09;26.03;;;5.20;;
23802;SDS011;12082;51.786;6.018;2023-12-20T05:18:34;26.60;;;5.77;;
23802;SDS011;12082;51.786;6.018;2023-12-20T05:21:00;24.63;;;6.40;;
23802;SDS011;12082;51.786;6.018;2023-12-20T05:23:26;16.73;;;5.53;;
23802;SDS011;12082;51.786;6.018;2023-12-20T05:25:51;34.13;;;6.77;;
23802;SDS011;12082;51.786;6.018;2023-12-20T05:28:17;32.67;;;5.67;;
23802;SDS011;12082;51.786;6.018;2023-12-20T05:30:42;23.53;;;6.80;;
23802;SDS011;12082;51.786;6.018;2023-12-20T05:33:08;22.40;;;5.70;;
23802;SDS011;12082;51.786;6.018;2023-12-20T05:35:34;17.27;;;5.00;;
23802;SDS011;12082;51.786;6.018;2023-12-20T05:37:59;23.80;;;5.83;;
23802;SDS011;12082;51.786;6.018;2023-12-20T05:40:25;22.03;;;5.67;;
23802;SDS011;12082;51.786;6.018;2023-12-20T05:42:51;23.57;;;5.47;;
23802;SDS011;12082;51.786;6.018;2023-12-20T05:45:16;17.47;;;5.03;;
23802;SDS011;12082;51.786;6.018;2023-12-20T05:47:42;33.80;;;5.33;;
23802;SDS011;12082;51.786;6.018;2023-12-20T05:50:07;23.17;;;6.10;;
23802;SDS011;12082;51.786;6.018;2023-12-20T05:52:34;23.20;;;5.67;;
23802;SDS011;12082;51.786;6.018;2023-12-20T05:54:59;29.50;;;5.73;;
23802;SDS011;12082;51.786;6.018;2023-12-20T05:57:26;21.73;;;5.07;;
23802;SDS011;12082;51.786;6.018;2023-12-20T05:59:52;21.40;;;5.60;;
23802;SDS011;12082;51.786;6.018;2023-12-20T06:02:18;28.60;;;5.63;;
23802;SDS011;12082;51.786;6.018;2023-12-20T06:04:43;19.77;;;4.70;;
23802;SDS011;12082;51.786;6.018;2023-12-20T06:07:12;28.83;;;5.67;;
23802;SDS011;12082;51.786;6.018;2023-12-20T06:09:39;14.70;;;4.07;;
23802;SDS011;12082;51.786;6.018;2023-12-20T06:12:05;17.60;;;4.20;;
23802;SDS011;12082;51.786;6.018;2023-12-20T06:14:32;25.10;;;4.67;;
23802;SDS011;12082;51.786;6.018;2023-12-20T06:16:58;15.43;;;4.87;;
23802;SDS011;12082;51.786;6.018;2023-12-20T06:19:24;18.40;;;4.20;;
23802;SDS011;12082;51.786;6.018;2023-12-20T06:21:49;19.33;;;4.23;;
23802;SDS011;12082;51.786;6.018;2023-12-20T06:24:15;13.83;;;4.20;;
23802;SDS011;12082;51.786;6.018;2023-12-20T06:26:40;20.20;;;4.23;;
23802;SDS011;12082;51.786;6.018;2023-12-20T06:29:06;22.47;;;4.57;;
23802;SDS011;12082;51.786;6.018;2023-12-20T06:31:31;19.87;;;4.60;;
23802;SDS011;12082;51.786;6.018;2023-12-20T06:33:58;23.93;;;4.83;;
23802;SDS011;12082;51.786;6.018;2023-12-20T06:36:24;33.20;;;3.77;;
23802;SDS011;12082;51.786;6.018;2023-12-20T06:38:50;22.93;;;4.27;;
23802;SDS011;12082;51.786;6.018;2023-12-20T06:41:16;15.23;;;4.33;;
23802;SDS011;12082;51.786;6.018;2023-12-20T06:43:42;16.30;;;4.23;;
23802;SDS011;12082;51.786;6.018;2023-12-20T06:46:08;20.93;;;4.80;;
23802;SDS011;12082;51.786;6.018;2023-12-20T06:48:34;11.00;;;3.43;;
23802;SDS011;12082;51.786;6.018;2023-12-20T06:51:00;17.27;;;3.53;;
23802;SDS011;12082;51.786;6.018;2023-12-20T06:53:27;23.50;;;4.93;;
23802;SDS011;12082;51.786;6.018;2023-12-20T06:55:52;18.53;;;4.67;;
23802;SDS011;12082;51.786;6.018;2023-12-20T06:58:18;12.03;;;3.47;;
23802;SDS011;12082;51.786;6.018;2023-12-20T07:00:44;19.07;;;4.70;;
23802;SDS011;12082;51.786;6.018;2023-12-20T07:03:09;23.77;;;4.90;;
23802;SDS011;12082;51.786;6.018;2023-12-20T07:05:35;20.87;;;4.20;;
23802;SDS011;12082;51.786;6.018;2023-12-20T07:08:00;14.80;;;3.63;;
23802;SDS011;12082;51.786;6.018;2023-12-20T07:10:26;19.23;;;3.20;;
23802;SDS011;12082;51.786;6.018;2023-12-20T07:12:52;22.23;;;3.63;;
23802;SDS011;12082;51.786;6.018;2023-12-20T07:15:20;30.73;;;4.60;;
23802;SDS011;12082;51.786;6.018;2023-12-20T07:17:46;19.00;;;4.10;;
23802;SDS011;12082;51.786;6.018;2023-12-20T07:20:11;16.40;;;4.37;;
23802;SDS011;12082;51.786;6.018;2023-12-20T07:22:37;21.30;;;4.30;;
23802;SDS011;12082;51.786;6.018;2023-12-20T07:25:04;14.50;;;4.30;;
23802;SDS011;12082;51.786;6.018;2023-12-20T07:27:30;14.77;;;4.20;;
23802;SDS011;12082;51.786;6.018;2023-12-20T07:29:55;16.93;;;3.83;;
23802;SDS011;12082;51.786;6.018;2023-12-20T07:32:21;14.33;;;3.83;;
23802;SDS011;12082;51.786;6.018;2023-12-20T07:34:46;18.40;;;4.10;;
23802;SDS011;12082;51.786;6.018;2023-12-20T07:37:12;14.27;;;3.63;;
23802;SDS011;12082;51.786;6.018;2023-12-20T07:39:41;18.43;;;5.30;;
23802;SDS011;12082;51.786;6.018;2023-12-20T07:42:07;17.93;;;5.67;;
23802;SDS011;12082;51.786;6.018;2023-12-20T07:44:33;17.37;;;3.47;;
23802;SDS011;12082;51.786;6.018;2023-12-20T07:46:58;19.93;;;4.57;;
23802;SDS011;12082;51.786;6.018;2023-12-20T07:49:26;12.13;;;3.27;;
23802;SDS011;12082;51.786;6.018;2023-12-20T07:51:51;15.00;;;4.30;;
23802;SDS011;12082;51.786;6.018;2023-12-20T07:54:17;22.53;;;4.67;;
23802;SDS011;12082;51.786;6.018;2023-12-20T07:56:42;15.93;;;4.20;;
23802;SDS011;12082;51.786;6.018;2023-12-20T07:59:08;8.60;;;3.57;;
23802;SDS011;12082;51.786;6.018;2023-12-20T08:01:34;13.37;;;4.37;;
23802;SDS011;12082;51.786;6.018;2023-12-20T08:03:59;20.67;;;4.47;;
23802;SDS011;12082;51.786;6.018;2023-12-20T08:06:25;14.60;;;3.97;;
23802;SDS011;12082;51.786;6.018;2023-12-20T08:08:50;10.97;;;3.77;;
23802;SDS011;12082;51.786;6.018;2023-12-20T08:11:16;21.63;;;5.10;;
23802;SDS011;12082;51.786;6.018;2023-12-20T08:13:42;14.80;;;3.90;;
23802;SDS011;12082;51.786;6.018;2023-12-20T08:16:08;16.53;;;4.40;;
23802;SDS011;12082;51.786;6.018;2023-12-20T08:18:34;13.97;;;4.57;;
23802;SDS011;12082;51.786;6.018;2023-12-20T08:20:59;17.10;;;5.33;;
23802;SDS011;12082;51.786;6.018;2023-12-20T08:23:26;23.17;;;4.77;;
23802;SDS011;12082;51.786;6.018;2023-12-20T08:25:51;19.00;;;3.80;;
23802;SDS011;12082;51.786;6.018;2023-12-20T08:28:17;18.20;;;4.60;;
23802;SDS011;12082;51.786;6.018;2023-12-20T08:30:43;11.37;;;3.77;;
23802;SDS011;12082;51.786;6.018;2023-12-20T08:33:08;23.27;;;4.27;;
23802;SDS011;12082;51.786;6.018;2023-12-20T08:35:37;17.27;;;5.53;;
23802;SDS011;12082;51.786;6.018;2023-12-20T08:38:04;13.13;;;4.00;;
23802;SDS011;12082;51.786;6.018;2023-12-20T08:40:30;23.97;;;4.87;;
23802;SDS011;12082;51.786;6.018;2023-12-20T08:42:55;15.57;;;4.60;;
23802;SDS011;12082;51.786;6.018;2023-12-20T08:45:21;22.60;;;4.13;;
23802;SDS011;12082;51.786;6.018;2023-12-20T08:47:46;18.33;;;4.37;;
23802;SDS011;12082;51.786;6.018;2023-12-20T08:50:12;11.27;;;3.77;;
23802;SDS011;12082;51.786;6.018;2023-12-20T08:52:38;19.03;;;5.03;;
23802;SDS011;12082;51.786;6.018;2023-12-20T08:55:03;19.93;;;4.37;;
23802;SDS011;12082;51.786;6.018;2023-12-20T08:57:29;16.73;;;4.43;;
23802;SDS011;12082;51.786;6.018;2023-12-20T08:59:56;12.93;;;4.60;;
23802;SDS011;12082;51.786;6.018;2023-12-20T09:02:22;8.40;;;3.67;;
23802;SDS011;12082;51.786;6.018;2023-12-20T09:04:48;19.27;;;4.47;;
23802;SDS011;12082;51.786;6.018;2023-12-20T09:07:23;19.57;;;4.43;;
23802;SDS011;12082;51.786;6.018;2023-12-20T09:09:49;13.83;;;3.93;;
23802;SDS011;12082;51.786;6.018;2023-12-20T09:12:15;20.07;;;3.83;;
23802;SDS011;12082;51.786;6.018;2023-12-20T09:14:42;10.27;;;3.27;;
23802;SDS011;12082;51.786;6.018;2023-12-20T09:17:07;23.87;;;4.17;;
23802;SDS011;12082;51.786;6.018;2023-12-20T09:19:34;23.87;;;4.13;;
23802;SDS011;12082;51.786;6.018;2023-12-20T09:21:59;11.77;;;3.00;;
23802;SDS011;12082;51.786;6.018;2023-12-20T09:24:25;16.73;;;3.60;;
23802;SDS011;12082;51.786;6.018;2023-12-20T09:26:51;18.03;;;4.40;;
23802;SDS011;12082;51.786;6.018;2023-12-20T09:29:17;20.43;;;3.83;;
23802;SDS011;12082;51.786;6.018;2023-12-20T09:31:43;11.87;;;3.87;;
23802;SDS011;12082;51.786;6.018;2023-12-20T09:34:09;10.07;;;3.93;;
23802;SDS011;12082;51.786;6.018;2023-12-20T09:36:35;17.00;;;4.17;;
23802;SDS011;12082;51.786;6.018;2023-12-20T09:39:01;18.20;;;3.90;;
23802;SDS011;12082;51.786;6.018;2023-12-20T09:41:28;19.90;;;4.67;;
23802;SDS011;12082;51.786;6.018;2023-12-20T09:43:58;16.40;;;3.90;;
23802;SDS011;12082;51.786;6.018;2023-12-20T09:46:28;19.07;;;4.00;;
23802;SDS011;12082;51.786;6.018;2023-12-20T09:48:58;15.10;;;4.13;;
23802;SDS011;12082;51.786;6.018;2023-12-20T09:51:25;11.93;;;3.97;;
23802;SDS011;12082;51.786;6.018;2023-12-20T09:53:53;14.63;;;4.00;;
23802;SDS011;12082;51.786;6.018;2023-12-20T09:56:19;26.30;;;4.77;;
23802;SDS011;12082;51.786;6.018;2023-12-20T09:58:46;18.10;;;5.20;;
23802;SDS011;12082;51.786;6.018;2023-12-20T10:01:12;14.57;;;4.40;;
23802;SDS011;12082;51.786;6.018;2023-12-20T10:03:39;12.63;;;4.00;;
23802;SDS011;12082;51.786;6.018;2023-12-20T10:06:06;25.33;;;4.23;;
23802;SDS011;12082;51.786;6.018;2023-12-20T10:08:32;13.10;;;3.30;;
23802;SDS011;12082;51.786;6.018;2023-12-20T10:10:57;28.77;;;5.30;;
23802;SDS011;12082;51.786;6.018;2023-12-20T10:13:27;20.33;;;4.53;;
23802;SDS011;12082;51.786;6.018;2023-12-20T10:15:54;13.53;;;4.23;;
23802;SDS011;12082;51.786;6.018;2023-12-20T10:18:20;16.83;;;4.10;;
23802;SDS011;12082;51.786;6.018;2023-12-20T10:20:46;20.67;;;4.17;;
23802;SDS011;12082;51.786;6.018;2023-12-20T10:23:12;22.07;;;3.73;;
23802;SDS011;12082;51.786;6.018;2023-12-20T10:25:39;11.13;;;4.23;;
23802;SDS011;12082;51.786;6.018;2023-12-20T10:28:11;27.17;;;5.13;;
23802;SDS011;12082;51.786;6.018;2023-12-20T10:30:46;18.83;;;3.40;;
23802;SDS011;12082;51.786;6.018;2023-12-20T10:33:11;21.17;;;4.00;;
23802;SDS011;12082;51.786;6.018;2023-12-20T10:35:37;14.80;;;4.00;;
23802;SDS011;12082;51.786;6.018;2023-12-20T10:38:04;18.03;;;3.77;;
23802;SDS011;12082;51.786;6.018;2023-12-20T10:40:30;22.07;;;4.37;;
23802;SDS011;12082;51.786;6.018;2023-12-20T10:42:57;19.17;;;4.37;;
23802;SDS011;12082;51.786;6.018;2023-12-20T10:45:24;31.60;;;4.30;;
23802;SDS011;12082;51.786;6.018;2023-12-20T10:47:50;15.07;;;3.40;;
23802;SDS011;12082;51.786;6.018;2023-12-20T10:50:16;21.13;;;4.30;;
23802;SDS011;12082;51.786;6.018;2023-12-20T10:52:44;18.83;;;4.67;;
23802;SDS011;12082;51.786;6.018;2023-12-20T10:55:11;22.67;;;3.47;;
23802;SDS011;12082;51.786;6.018;2023-12-20T10:57:37;12.73;;;3.70;;
23802;SDS011;12082;51.786;6.018;2023-12-20T11:00:04;27.67;;;4.60;;
23802;SDS011;12082;51.786;6.018;2023-12-20T11:02:36;18.63;;;4.67;;
23802;SDS011;12082;51.786;6.018;2023-12-20T11:13:58;27.87;;;4.67;;
23802;SDS011;12082;51.786;6.018;2023-12-20T11:16:27;22.87;;;3.90;;
23802;SDS011;12082;51.786;6.018;2023-12-20T11:18:53;15.07;;;4.83;;
23802;SDS011;12082;51.786;6.018;2023-12-20T11:21:18;26.10;;;4.67;;
23802;SDS011;12082;51.786;6.018;2023-12-20T11:23:45;8.93;;;3.93;;
23802;SDS011;12082;51.786;6.018;2023-12-20T11:26:11;16.33;;;4.23;;
23802;SDS011;12082;51.786;6.018;2023-12-20T11:28:40;17.43;;;4.17;;
23802;SDS011;12082;51.786;6.018;2023-12-20T11:31:05;15.63;;;3.73;;
23802;SDS011;12082;51.786;6.018;2023-12-20T11:33:35;16.70;;;4.23;;
23802;SDS011;12082;51.786;6.018;2023-12-20T11:36:02;19.17;;;4.30;;
23802;SDS011;12082;51.786;6.018;2023-12-20T11:38:32;19.73;;;3.73;;
23802;SDS011;12082;51.786;6.018;2023-12-20T11:41:02;14.67;;;3.90;;
23802;SDS011;12082;51.786;6.018;2023-12-20T11:46:06;9.57;;;3.63;;
23802;SDS011;12082;51.786;6.018;2023-12-20T11:48:33;17.00;;;4.73;;
23802;SDS011;12082;51.786;6.018;2023-12-20T11:51:00;16.40;;;4.43;;
23802;SDS011;12082;51.786;6.018;2023-12-20T11:53:25;23.70;;;5.03;;
23802;SDS011;12082;51.786;6.018;2023-12-20T11:55:51;11.03;;;3.23;;
23802;SDS011;12082;51.786;6.018;2023-12-20T11:58:18;12.60;;;3.67;;
23802;SDS011;12082;51.786;6.018;2023-12-20T12:00:44;15.27;;;4.27;;
23802;SDS011;12082;51.786;6.018;2023-12-20T12:03:09;19.80;;;4.10;;
23802;SDS011;12082;51.786;6.018;2023-12-20T12:05:35;21.90;;;4.17;;
23802;SDS011;12082;51.786;6.018;2023-12-20T12:08:01;15.60;;;3.50;;
23802;SDS011;12082;51.786;6.018;2023-12-20T12:10:28;19.67;;;3.57;;
23802;SDS011;12082;51.786;6.018;2023-12-20T12:12:54;14.73;;;3.50;;
23802;SDS011;12082;51.786;6.018;2023-12-20T12:15:20;16.13;;;3.73;;
23802;SDS011;12082;51.786;6.018;2023-12-20T12:17:56;15.13;;;4.23;;
23802;SDS011;12082;51.786;6.018;2023-12-20T12:20:22;13.37;;;3.77;;
23802;SDS011;12082;51.786;6.018;2023-12-20T12:22:58;12.07;;;3.70;;
23802;SDS011;12082;51.786;6.018;2023-12-20T12:25:25;12.93;;;3.73;;
23802;SDS011;12082;51.786;6.018;2023-12-20T12:27:51;15.57;;;3.47;;
23802;SDS011;12082;51.786;6.018;2023-12-20T12:30:17;11.13;;;3.90;;
23802;SDS011;12082;51.786;6.018;2023-12-20T12:32:43;16.13;;;4.33;;
23802;SDS011;12082;51.786;6.018;2023-12-20T12:35:10;14.67;;;3.67;;
23802;SDS011;12082;51.786;6.018;2023-12-20T12:37:37;15.50;;;4.03;;
23802;SDS011;12082;51.786;6.018;2023-12-20T12:40:05;13.57;;;4.23;;
23802;SDS011;12082;51.786;6.018;2023-12-20T12:42:34;12.77;;;4.63;;
23802;SDS011;12082;51.786;6.018;2023-12-20T12:45:00;17.10;;;3.93;;
23802;SDS011;12082;51.786;6.018;2023-12-20T12:47:26;17.07;;;3.87;;
23802;SDS011;12082;51.786;6.018;2023-12-20T12:49:52;23.17;;;5.07;;
23802;SDS011;12082;51.786;6.018;2023-12-20T12:52:20;11.40;;;3.10;;
23802;SDS011;12082;51.786;6.018;2023-12-20T12:54:45;17.13;;;3.77;;
23802;SDS011;12082;51.786;6.018;2023-12-20T12:57:12;17.77;;;3.67;;
23802;SDS011;12082;51.786;6.018;2023-12-20T12:59:38;11.93;;;4.30;;
23802;SDS011;12082;51.786;6.018;2023-12-20T13:02:04;14.80;;;4.57;;
23802;SDS011;12082;51.786;6.018;2023-12-20T13:04:30;13.07;;;4.23;;
23802;SDS011;12082;51.786;6.018;2023-12-20T13:06:56;22.77;;;4.10;;
23802;SDS011;12082;51.786;6.018;2023-12-20T13:09:22;13.50;;;3.20;;
23802;SDS011;12082;51.786;6.018;2023-12-20T13:11:48;15.03;;;3.00;;
23802;SDS011;12082;51.786;6.018;2023-12-20T13:14:13;20.13;;;4.13;;
23802;SDS011;12082;51.786;6.018;2023-12-20T13:16:40;13.77;;;4.00;;
23802;SDS011;12082;51.786;6.018;2023-12-20T13:19:06;25.43;;;3.53;;
23802;SDS011;12082;51.786;6.018;2023-12-20T13:21:32;11.77;;;3.83;;
23802;SDS011;12082;51.786;6.018;2023-12-20T13:23:58;12.57;;;3.70;;
23802;SDS011;12082;51.786;6.018;2023-12-20T13:26:23;15.63;;;3.93;;
23802;SDS011;12082;51.786;6.018;2023-12-20T13:28:49;18.47;;;4.20;;
23802;SDS011;12082;51.786;6.018;2023-12-20T13:31:14;18.80;;;4.63;;
23802;SDS011;12082;51.786;6.018;2023-12-20T13:33:40;20.80;;;3.93;;
23802;SDS011;12082;51.786;6.018;2023-12-20T13:36:05;13.33;;;4.93;;
23802;SDS011;12082;51.786;6.018;2023-12-20T13:38:31;12.97;;;4.47;;
23802;SDS011;12082;51.786;6.018;2023-12-20T13:40:57;12.47;;;3.37;;
23802;SDS011;12082;51.786;6.018;2023-12-20T13:43:23;14.57;;;3.50;;
23802;SDS011;12082;51.786;6.018;2023-12-20T13:45:49;15.17;;;4.97;;
23802;SDS011;12082;51.786;6.018;2023-12-20T13:48:15;11.63;;;3.40;;
23802;SDS011;12082;51.786;6.018;2023-12-20T13:50:41;20.30;;;4.10;;
23802;SDS011;12082;51.786;6.018;2023-12-20T13:53:07;13.13;;;4.33;;
23802;SDS011;12082;51.786;6.018;2023-12-20T13:55:32;17.30;;;3.87;;
23802;SDS011;12082;51.786;6.018;2023-12-20T13:57:58;17.83;;;4.97;;
23802;SDS011;12082;51.786;6.018;2023-12-20T14:00:23;21.67;;;4.60;;
23802;SDS011;12082;51.786;6.018;2023-12-20T14:02:49;19.13;;;4.13;;
23802;SDS011;12082;51.786;6.018;2023-12-20T14:05:15;17.57;;;4.77;;
23802;SDS011;12082;51.786;6.018;2023-12-20T14:07:42;10.47;;;3.80;;
23802;SDS011;12082;51.786;6.018;2023-12-20T14:10:09;15.73;;;4.30;;
23802;SDS011;12082;51.786;6.018;2023-12-20T14:12:38;16.47;;;4.07;;
23802;SDS011;12082;51.786;6.018;2023-12-20T14:15:04;19.30;;;4.60;;
23802;SDS011;12082;51.786;6.018;2023-12-20T14:17:35;15.30;;;3.97;;
23802;SDS011;12082;51.786;6.018;2023-12-20T14:20:07;16.50;;;3.70;;
23802;SDS011;12082;51.786;6.018;2023-12-20T14:22:34;13.87;;;4.13;;
23802;SDS011;12082;51.786;6.018;2023-12-20T14:25:00;16.03;;;4.90;;
23802;SDS011;12082;51.786;6.018;2023-12-20T14:27:26;12.00;;;3.47;;
23802;SDS011;12082;51.786;6.018;2023-12-20T14:29:55;17.80;;;4.00;;
23802;SDS011;12082;51.786;6.018;2023-12-20T14:32:20;13.30;;;4.40;;
23802;SDS011;12082;51.786;6.018;2023-12-20T14:34:46;17.93;;;4.53;;
23802;SDS011;12082;51.786;6.018;2023-12-20T14:37:12;18.90;;;4.03;;